Time;durP1;ratioP1;P1;durP2;ratioP2;P2;SDS_P1;SDS_P2;PMS_P1;PMS_P2;Temp;Humidity;BMP_temperature;BMP_pressure;BME280_temperature;BME280_humidity;BME280_pressure;Samples;Min_cycle;Max_cycle;Signal;HPM_P1;HPM_P2
2021/03/10 00:01:07;;;;;;;144.93;55.60;;;;;;;-4.09;72.77;98338.48;1824883;78;21260;-72
2021/03/10 00:03:33;;;;;;;124.95;49.58;;;;;;;-4.12;72.90;98343.28;1824762;78;21550;-73
2021/03/10 00:05:59;;;;;;;119.65;47.10;;;;;;;-4.12;71.99;98340.64;1824874;78;21148;-72
2021/03/10 00:08:25;;;;;;;110.00;41.98;;;;;;;-4.10;71.20;98331.55;1824905;78;21148;-72
2021/03/10 00:10:51;;;;;;;118.72;47.03;;;;;;;-4.19;70.49;98333.91;1824955;78;21017;-72
2021/03/10 00:13:18;;;;;;;104.32;43.55;;;;;;;-4.29;70.57;98337.30;1824925;78;21113;-72
2021/03/10 00:15:44;;;;;;;116.67;44.45;;;;;;;-4.37;70.85;98347.44;1824714;78;21458;-72
2021/03/10 00:18:10;;;;;;;123.90;46.23;;;;;;;-4.41;72.49;98340.05;1824937;78;21529;-72
2021/03/10 00:20:37;;;;;;;108.50;42.75;;;;;;;-4.39;73.13;98349.45;1824742;78;21097;-72
2021/03/10 00:23:03;;;;;;;112.45;43.83;;;;;;;-4.43;73.04;98348.67;1824855;78;21109;-72
2021/03/10 00:25:29;;;;;;;122.13;44.50;;;;;;;-4.54;73.62;98353.84;1824772;78;21181;-73
2021/03/10 00:27:55;;;;;;;129.27;44.73;;;;;;;-4.63;74.14;98354.40;1824882;78;21097;-73
2021/03/10 00:30:22;;;;;;;107.75;44.30;;;;;;;-4.69;75.01;98352.47;1824836;78;21049;-72
2021/03/10 00:32:48;;;;;;;104.17;40.58;;;;;;;-4.74;74.90;98353.48;1824846;78;21077;-72
2021/03/10 00:35:14;;;;;;;119.47;43.95;;;;;;;-4.75;73.45;98349.20;1824746;78;21085;-72
2021/03/10 00:37:40;;;;;;;98.55;40.03;;;;;;;-4.80;74.25;98345.42;1824813;78;22041;-72
2021/03/10 00:40:07;;;;;;;99.17;39.67;;;;;;;-4.87;74.34;98347.45;1824742;78;21073;-72
2021/03/10 00:42:33;;;;;;;99.72;38.13;;;;;;;-4.92;74.85;98347.64;1824803;78;21077;-72
2021/03/10 00:44:59;;;;;;;103.83;37.03;;;;;;;-4.91;74.27;98348.78;1824852;78;21077;-73
2021/03/10 00:47:26;;;;;;;104.23;40.10;;;;;;;-4.92;75.02;98341.86;1824862;78;21144;-73
2021/03/10 00:49:52;;;;;;;100.82;39.23;;;;;;;-4.97;75.04;98341.53;1824720;78;21231;-72
2021/03/10 00:52:18;;;;;;;95.87;38.08;;;;;;;-5.01;75.11;98345.54;1824860;78;21117;-72
2021/03/10 00:54:45;;;;;;;84.40;34.27;;;;;;;-5.08;75.12;98334.00;1824804;78;21415;-73
2021/03/10 00:57:11;;;;;;;96.37;39.38;;;;;;;-5.15;74.73;98337.83;1824819;78;21540;-73
2021/03/10 00:59:37;;;;;;;93.40;39.25;;;;;;;-5.21;75.48;98336.39;1824862;78;21470;-73
2021/03/10 01:02:03;;;;;;;98.20;40.30;;;;;;;-5.25;74.73;98341.67;1824808;78;21286;-73
2021/03/10 01:04:30;;;;;;;92.70;38.20;;;;;;;-5.31;76.23;98341.86;1824780;78;21462;-72
2021/03/10 01:06:56;;;;;;;87.30;37.70;;;;;;;-5.30;75.13;98341.36;1824847;78;21128;-73
2021/03/10 01:09:22;;;;;;;103.35;41.73;;;;;;;-5.34;76.14;98334.28;1799256;78;21085;-73
2021/03/10 01:11:48;;;;;;;100.27;42.40;;;;;;;-5.33;75.96;98335.11;1824940;78;21517;-73
2021/03/10 01:14:15;;;;;;;85.20;39.40;;;;;;;-5.40;76.92;98333.14;1824830;78;22180;-72
2021/03/10 01:16:41;;;;;;;84.03;39.27;;;;;;;-5.43;76.80;98327.39;1824818;78;21116;-72
2021/03/10 01:19:07;;;;;;;87.82;38.02;;;;;;;-5.41;75.77;98323.56;1824843;78;21041;-73
2021/03/10 01:21:34;;;;;;;83.33;38.40;;;;;;;-5.36;74.94;98324.39;1824737;78;21133;-72
2021/03/10 01:24:00;;;;;;;88.05;38.08;;;;;;;-5.38;75.72;98322.42;1824782;78;21006;-72
2021/03/10 01:26:26;;;;;;;80.28;34.70;;;;;;;-5.45;76.54;98327.56;1824806;78;21175;-73
2021/03/10 01:28:52;;;;;;;73.25;33.48;;;;;;;-5.47;75.77;98325.59;1824678;78;21144;-73
2021/03/10 01:31:18;;;;;;;71.92;30.12;;;;;;;-5.51;74.74;98322.95;1824805;78;21055;-73
2021/03/10 01:33:44;;;;;;;67.17;31.42;;;;;;;-5.48;75.61;98325.24;1824730;78;21231;-73
2021/03/10 01:36:10;;;;;;;62.67;31.55;;;;;;;-5.47;76.84;98328.70;1824816;78;21104;-72
2021/03/10 01:38:36;;;;;;;69.95;30.08;;;;;;;-5.44;76.00;98329.70;1824867;78;21481;-73
2021/03/10 01:41:03;;;;;;;86.37;39.15;;;;;;;-5.44;74.71;98327.06;1824200;78;21045;-73
2021/03/10 01:43:30;;;;;;;75.35;32.55;;;;;;;-5.42;73.28;98324.56;1824290;78;21470;-72
2021/03/10 01:45:56;;;;;;;76.97;32.70;;;;;;;-5.56;76.30;98325.77;1824138;78;21101;-72
2021/03/10 01:48:22;;;;;;;84.97;37.78;;;;;;;-5.63;76.62;98320.36;1824302;78;21109;-73
2021/03/10 01:50:49;;;;;;;97.90;39.30;;;;;;;-5.68;76.18;98322.67;1824266;78;21305;-72
2021/03/10 01:53:15;;;;;;;93.58;42.67;;;;;;;-5.75;76.05;98324.34;1824142;78;21148;-73
2021/03/10 01:55:41;;;;;;;99.25;40.83;;;;;;;-5.78;75.16;98316.77;1824200;78;21034;-73
2021/03/10 01:58:07;;;;;;;80.62;36.33;;;;;;;-5.84;74.33;98312.97;1824308;78;21116;-72
2021/03/10 02:00:33;;;;;;;78.92;31.80;;;;;;;-5.91;75.00;98307.24;1824324;78;21014;-73
2021/03/10 02:03:00;;;;;;;71.67;32.65;;;;;;;-5.92;77.07;98306.42;1824414;78;21248;-73
2021/03/10 02:05:26;;;;;;;75.92;34.48;;;;;;;-5.86;76.53;98309.69;1824252;78;21518;-73
2021/03/10 02:08:15;;;;;;;86.17;37.05;;;;;;;-5.92;77.55;98314.34;1824359;78;21117;-73
2021/03/10 02:11:04;;;;;;;80.53;34.63;;;;;;;-5.90;76.92;98315.48;1824325;78;21494;-73
2021/03/10 02:14:11;;;;;;;80.55;35.95;;;;;;;-5.90;75.73;98322.08;1824563;78;21057;-72
2021/03/10 02:16:47;;;;;;;66.35;29.85;;;;;;;-5.92;76.62;98320.12;1824484;78;21174;-73
2021/03/10 02:19:51;;;;;;;62.73;28.67;;;;;;;-5.84;75.61;98324.84;1824378;78;21132;-73
2021/03/10 02:22:50;;;;;;;55.05;27.95;;;;;;;-5.76;75.90;98317.41;1824426;78;21045;-73
2021/03/10 02:25:47;;;;;;;70.90;30.97;;;;;;;-5.64;74.79;98313.91;1824424;78;21069;-72
2021/03/10 02:28:13;;;;;;;59.35;28.95;;;;;;;-5.58;75.76;98315.38;1824415;78;21061;-73
2021/03/10 02:30:44;;;;;;;69.67;28.95;;;;;;;-5.51;76.32;98318.98;1824298;78;21179;-73
2021/03/10 02:33:14;;;;;;;67.70;29.85;;;;;;;-5.43;76.09;98315.00;1824286;78;21077;-73
2021/03/10 02:35:45;;;;;;;78.87;34.40;;;;;;;-5.40;76.80;98311.19;1824246;78;21017;-73
2021/03/10 02:38:18;;;;;;;109.40;46.40;;;;;;;-5.41;76.80;98312.19;1794940;78;21069;-73
2021/03/10 02:40:46;;;;;;;90.22;38.30;;;;;;;-5.38;76.09;98319.78;1826537;78;21382;-73
2021/03/10 02:43:12;;;;;;;83.22;34.10;;;;;;;-5.42;75.34;98318.47;1827520;78;21191;-73
2021/03/10 02:45:38;;;;;;;76.67;35.03;;;;;;;-5.45;74.51;98313.53;1827377;78;21120;-73
2021/03/10 02:48:11;;;;;;;74.50;35.30;;;;;;;-5.53;74.05;98323.63;1827513;78;21153;-73
2021/03/10 02:50:37;;;;;;;80.90;35.43;;;;;;;-5.65;74.68;98318.36;1827454;78;21494;-73
2021/03/10 02:53:05;;;;;;;74.20;31.30;;;;;;;-5.69;76.57;98321.03;1827525;78;21117;-73
2021/03/10 02:55:35;;;;;;;72.60;29.52;;;;;;;-5.72;77.46;98323.52;1827516;78;21377;-73
2021/03/10 02:58:01;;;;;;;77.40;33.25;;;;;;;-5.71;77.02;98323.84;1827429;78;21101;-73
2021/03/10 03:00:28;;;;;;;89.72;39.92;;;;;;;-5.76;77.26;98324.02;1827494;78;21104;-73
2021/03/10 03:02:54;;;;;;;115.95;44.50;;;;;;;-5.73;77.08;98323.66;1827580;78;21485;-73
2021/03/10 03:05:20;;;;;;;111.50;45.12;;;;;;;-5.70;74.88;98316.75;1827449;78;21461;-73
2021/03/10 03:07:47;;;;;;;97.37;35.15;;;;;;;-5.84;76.29;98319.57;1827531;78;21101;-73
2021/03/10 03:10:25;;;;;;;86.53;35.95;;;;;;;-5.85;75.71;98319.25;1827469;78;21422;-73
2021/03/10 03:12:52;;;;;;;100.83;38.87;;;;;;;-5.89;76.65;98319.77;1827846;78;21041;-73
2021/03/10 03:15:21;;;;;;;84.52;33.13;;;;;;;-5.90;76.41;98318.91;1827408;78;21124;-73
2021/03/10 03:17:48;;;;;;;78.80;33.50;;;;;;;-5.91;76.42;98319.94;1827514;78;21077;-73
2021/03/10 03:20:15;;;;;;;70.37;31.52;;;;;;;-5.95;76.83;98319.97;1827443;78;21418;-72
2021/03/10 03:22:50;;;;;;;67.15;30.45;;;;;;;-5.95;76.89;98320.46;1827416;78;21104;-72
2021/03/10 03:25:18;;;;;;;71.02;29.72;;;;;;;-5.99;76.83;98320.78;1827519;78;21101;-72
2021/03/10 03:27:54;;;;;;;79.92;33.40;;;;;;;-6.02;75.94;98321.63;1827577;78;21493;-72
2021/03/10 03:30:23;;;;;;;86.20;36.90;;;;;;;-6.04;76.40;98324.43;1827449;78;21382;-72
2021/03/10 03:32:49;;;;;;;82.57;35.87;;;;;;;-6.09;75.89;98335.97;1802840;78;21374;-72
2021/03/10 03:35:16;;;;;;;111.68;41.92;;;;;;;-6.12;76.21;98331.53;1827347;78;21117;-72
2021/03/10 03:37:51;;;;;;;108.32;43.28;;;;;;;-6.18;77.10;98333.50;1827559;78;21493;-72
2021/03/10 03:40:18;;;;;;;145.90;49.63;;;;;;;-6.21;77.00;98329.89;1826867;78;21108;-73
2021/03/10 03:42:45;;;;;;;165.35;55.28;;;;;;;-6.25;77.02;98336.80;1827489;78;21069;-73
2021/03/10 03:45:14;;;;;;;105.60;41.58;;;;;;;-6.25;75.18;98334.66;1827494;78;21181;-73
2021/03/10 03:47:40;;;;;;;101.95;35.68;;;;;;;-6.31;76.70;98339.30;1802753;78;21494;-73
2021/03/10 03:50:08;;;;;;;74.05;32.35;;;;;;;-6.30;75.16;98335.66;1827422;78;21120;-73
2021/03/10 03:52:36;;;;;;;70.20;31.60;;;;;;;-6.34;77.41;98341.74;1802791;78;21521;-73
2021/03/10 03:55:04;;;;;;;63.92;29.30;;;;;;;-6.30;76.77;98336.98;1777122;78;21411;-73
2021/03/10 03:57:30;;;;;;;69.17;31.12;;;;;;;-6.30;77.66;98337.80;1827448;78;21175;-73
2021/03/10 03:59:56;;;;;;;66.40;31.07;;;;;;;-6.31;77.92;98332.20;1827352;78;21088;-73
2021/03/10 04:02:22;;;;;;;69.75;35.28;;;;;;;-6.27;76.64;98339.28;1827474;78;21454;-73
2021/03/10 04:04:49;;;;;;;73.28;35.28;;;;;;;-6.34;77.51;98339.11;1802305;78;21466;-73
2021/03/10 04:07:15;;;;;;;84.92;37.17;;;;;;;-6.32;77.92;98338.97;1827570;78;21560;-73
2021/03/10 04:09:41;;;;;;;66.92;30.80;;;;;;;-6.29;77.12;98343.91;1827375;78;21184;-73
2021/03/10 04:12:08;;;;;;;68.45;31.23;;;;;;;-6.31;77.05;98341.44;1827415;78;21139;-73
2021/03/10 04:14:34;;;;;;;84.28;34.30;;;;;;;-6.30;76.78;98343.08;1827452;78;21053;-73
2021/03/10 04:17:01;;;;;;;58.58;26.62;;;;;;;-6.32;76.49;98344.24;1827457;78;21140;-73
2021/03/10 04:19:27;;;;;;;69.32;29.63;;;;;;;-6.32;75.94;98345.06;1827464;78;21085;-73
2021/03/10 04:21:53;;;;;;;108.87;43.15;;;;;;;-6.41;75.54;98351.80;1827440;78;21084;-73
2021/03/10 04:24:20;;;;;;;77.27;31.65;;;;;;;-6.48;77.21;98348.19;1827365;78;21072;-73
2021/03/10 04:26:47;;;;;;;85.95;34.88;;;;;;;-6.46;76.00;98356.25;1827414;78;21525;-73
2021/03/10 04:29:13;;;;;;;68.95;31.90;;;;;;;-6.49;77.29;98352.64;1827491;78;21160;-73
2021/03/10 04:31:39;;;;;;;58.48;30.30;;;;;;;-6.46;76.31;98350.98;1827515;78;21119;-73
2021/03/10 04:34:05;;;;;;;75.75;36.08;;;;;;;-6.54;75.37;98351.80;1827406;78;21246;-73
2021/03/10 04:36:31;;;;;;;67.20;30.45;;;;;;;-6.59;76.53;98342.72;1827417;78;21033;-73
2021/03/10 04:38:57;;;;;;;77.35;34.73;;;;;;;-6.59;77.50;98357.22;1827425;78;21202;-73
2021/03/10 04:41:23;;;;;;;75.95;33.70;;;;;;;-6.66;78.00;98349.16;1824933;77;21097;-73
2021/03/10 04:43:50;;;;;;;70.28;35.30;;;;;;;-6.60;77.61;98351.62;1824252;78;21120;-73
2021/03/10 04:46:17;;;;;;;77.72;34.35;;;;;;;-6.59;78.03;98343.53;1824298;78;21178;-73
2021/03/10 04:48:44;;;;;;;73.52;33.28;;;;;;;-6.63;78.33;98347.50;1824147;78;21534;-73
2021/03/10 04:51:10;;;;;;;77.08;33.67;;;;;;;-6.64;78.12;98345.86;1824231;78;21002;-73
2021/03/10 04:53:36;;;;;;;71.10;33.58;;;;;;;-6.65;77.92;98347.34;1824210;78;21521;-73
2021/03/10 04:56:03;;;;;;;71.28;30.35;;;;;;;-6.71;77.73;98350.13;1824198;78;21018;-73
2021/03/10 04:58:29;;;;;;;72.35;33.25;;;;;;;-6.82;77.93;98347.31;1824204;78;21458;-73
2021/03/10 05:00:56;;;;;;;63.05;30.43;;;;;;;-6.84;77.14;98355.02;1824167;78;21513;-73
2021/03/10 05:03:22;;;;;;;71.55;35.45;;;;;;;-6.86;76.32;98356.51;1824218;78;21513;-73
2021/03/10 05:05:48;;;;;;;88.70;39.40;;;;;;;-6.99;77.65;98358.80;1824140;78;21097;-73
2021/03/10 05:08:15;;;;;;;70.78;32.78;;;;;;;-6.99;77.05;98364.06;1824222;78;21148;-73
2021/03/10 05:10:41;;;;;;;86.12;34.73;;;;;;;-7.04;78.45;98356.30;1824170;78;21182;-73
2021/03/10 05:13:07;;;;;;;67.85;31.62;;;;;;;-7.01;78.58;98359.42;1824167;78;21130;-73
2021/03/10 05:15:34;;;;;;;59.83;28.60;;;;;;;-6.99;78.42;98363.24;1824108;78;21124;-73
2021/03/10 05:18:00;;;;;;;72.95;30.97;;;;;;;-6.94;77.90;98366.20;1824234;78;21498;-73
2021/03/10 05:20:27;;;;;;;60.98;29.82;;;;;;;-6.90;78.15;98360.96;1824264;78;21021;-73
2021/03/10 05:22:53;;;;;;;68.25;31.33;;;;;;;-6.90;77.88;98363.10;1824198;78;21081;-73
2021/03/10 05:25:19;;;;;;;60.33;30.27;;;;;;;-6.87;77.96;98364.58;1824065;78;21164;-73
2021/03/10 05:27:45;;;;;;;58.48;27.45;;;;;;;-6.86;77.84;98369.69;1824295;78;21376;-73
2021/03/10 05:30:16;;;;;;;69.70;25.12;;;;;;;-6.85;77.04;98373.97;1824225;78;21006;-73
2021/03/10 05:32:42;;;;;;;62.38;29.57;;;;;;;-6.88;76.56;98372.16;1824227;78;21073;-74
2021/03/10 05:35:09;;;;;;;80.47;30.77;;;;;;;-6.98;75.69;98372.30;1824170;78;21189;-72
2021/03/10 05:37:35;;;;;;;67.32;30.10;;;;;;;-7.08;75.69;98378.20;1824218;78;21101;-72
2021/03/10 05:40:03;;;;;;;57.95;24.37;;;;;;;-7.14;75.29;98374.38;1824169;78;21061;-72
2021/03/10 05:42:29;;;;;;;64.15;28.80;;;;;;;-7.12;75.52;98372.90;1794673;78;21101;-72
2021/03/10 05:44:55;;;;;;;69.95;29.52;;;;;;;-7.16;75.29;98376.35;1794524;78;21085;-71
2021/03/10 05:47:21;;;;;;;82.15;33.98;;;;;;;-7.12;76.75;98377.67;1824172;78;22022;-71
2021/03/10 05:49:47;;;;;;;67.35;27.45;;;;;;;-7.07;77.22;98381.16;1824208;78;21457;-72
2021/03/10 05:52:14;;;;;;;68.30;29.15;;;;;;;-6.99;76.46;98379.05;1824184;78;21033;-71
2021/03/10 05:54:43;;;;;;;61.95;30.40;;;;;;;-6.94;75.95;98381.52;1824155;78;21045;-71
2021/03/10 05:57:09;;;;;;;94.80;42.73;;;;;;;-6.91;75.67;98379.91;1824277;78;21093;-72
2021/03/10 05:59:36;;;;;;;82.62;39.92;;;;;;;-6.97;77.54;98380.53;1824166;78;21132;-72
2021/03/10 06:02:03;;;;;;;62.95;33.65;;;;;;;-6.92;76.61;98385.30;1824120;78;21029;-72
2021/03/10 06:04:42;;;;;;;92.27;43.75;;;;;;;-6.87;76.35;98383.84;1824265;78;21458;-72
2021/03/10 06:07:24;;;;;;;;;;;;;;;-6.83;76.85;98389.15;1826935;78;21489;-73
2021/03/10 06:10:02;;;;;;;152.12;62.67;;;;;;;-6.85;77.47;98389.78;1824305;78;20234;-72
2021/03/10 06:12:39;;;;;;;76.45;35.52;;;;;;;-6.80;77.38;98391.13;1823664;78;21077;-72
2021/03/10 06:15:07;;;;;;;68.85;33.30;;;;;;;-6.70;76.19;98393.13;1824093;78;21148;-72
2021/03/10 06:17:49;;;;;;;113.97;54.60;;;;;;;-6.64;75.73;98389.36;1824129;78;21148;-72
2021/03/10 06:20:30;;;;;;;121.72;51.55;;;;;;;-6.70;77.54;98399.22;1823752;78;21116;-71
2021/03/10 06:22:56;;;;;;;103.00;48.63;;;;;;;-6.59;77.25;98398.08;1824241;78;21053;-72
2021/03/10 06:25:23;;;;;;;111.32;43.42;;;;;;;-6.45;75.88;98402.73;1824206;78;22044;-72
2021/03/10 06:27:55;;;;;;;156.50;67.08;;;;;;;-6.40;75.67;98403.08;1824221;78;21065;-72
2021/03/10 06:30:41;;;;;;;141.18;71.65;;;;;;;-6.33;75.59;98407.19;1824141;78;21042;-73
2021/03/10 06:33:08;;;;;;;171.05;89.25;;;;;;;-6.20;75.74;98398.80;1814451;78;21588;-73
2021/03/10 06:35:34;;;;;;;173.90;78.02;;;;;;;-6.07;77.01;98408.36;1824100;78;21100;-72
2021/03/10 06:38:16;;;;;;;138.80;64.72;;;;;;;-5.91;75.68;98412.31;1824270;78;21971;-73
2021/03/10 06:40:55;;;;;;;92.33;43.05;;;;;;;-5.73;75.76;98410.78;1824466;78;21168;-72
2021/03/10 06:43:23;;;;;;;98.55;48.75;;;;;;;-5.53;75.12;98406.81;1827550;78;21093;-72
2021/03/10 06:45:49;;;;;;;99.50;48.83;;;;;;;-5.34;75.46;98413.53;1825654;78;21041;-73
2021/03/10 06:48:20;;;;;;;116.70;48.83;;;;;;;-5.17;75.43;98411.67;1827613;78;21541;-73
2021/03/10 06:50:46;;;;;;;87.10;40.90;;;;;;;-4.97;75.12;98413.41;1827477;78;21200;-72
2021/03/10 06:53:12;;;;;;;340.80;122.10;;;;;;;-4.78;74.13;98416.16;1827438;78;21557;-72
2021/03/10 06:55:45;;;;;;;138.37;58.58;;;;;;;-4.72;74.06;98424.20;1827424;78;21117;-71
2021/03/10 06:58:23;;;;;;;104.27;49.75;;;;;;;-4.59;73.73;98427.12;1827623;78;21088;-73
2021/03/10 07:01:02;;;;;;;103.42;46.83;;;;;;;-4.48;73.67;98425.91;1827481;78;21132;-73
2021/03/10 07:03:28;;;;;;;89.42;40.43;;;;;;;-4.31;73.32;98427.95;1827635;78;21252;-73
2021/03/10 07:05:55;;;;;;;99.00;51.60;;;;;;;-4.18;73.00;98433.50;1827391;78;21395;-73
2021/03/10 07:08:21;;;;;;;113.10;49.20;;;;;;;-4.02;72.67;98433.86;1827495;78;21148;-73
2021/03/10 07:10:47;;;;;;;76.12;35.95;;;;;;;-3.81;72.74;98431.91;1827424;78;21076;-72
2021/03/10 07:13:14;;;;;;;98.33;50.75;;;;;;;-3.01;73.14;98428.12;1827595;78;21545;-73
2021/03/10 07:15:40;;;;;;;99.28;50.90;;;;;;;-2.28;71.01;98421.89;1827394;78;21264;-73
2021/03/10 07:18:06;;;;;;;82.55;45.20;;;;;;;-1.28;71.64;98415.63;1827548;78;21533;-73
2021/03/10 07:20:32;;;;;;;97.90;45.67;;;;;;;-0.67;67.18;98417.59;1827408;78;21040;-73
2021/03/10 07:23:09;;;;;;;85.60;42.67;;;;;;;-0.07;66.93;98412.77;1827596;78;21113;-73
2021/03/10 07:25:36;;;;;;;76.25;44.25;;;;;;;0.63;63.39;98409.22;1827567;78;21796;-71
2021/03/10 07:28:08;;;;;;;71.53;40.58;;;;;;;1.33;67.39;98420.98;1827553;78;21178;-72
2021/03/10 07:30:40;;;;;;;70.40;40.58;;;;;;;1.76;65.82;98412.38;1826853;78;21124;-73
2021/03/10 07:33:10;;;;;;;65.87;38.35;;;;;;;1.80;64.67;98417.61;1827594;78;21104;-72
2021/03/10 07:35:51;;;;;;;61.53;35.33;;;;;;;2.33;59.00;98415.12;1827271;78;21112;-73
2021/03/10 07:38:19;;;;;;;57.05;35.03;;;;;;;2.83;59.71;98415.94;1827545;78;21076;-72
2021/03/10 07:41:02;;;;;;;56.98;33.90;;;;;;;3.61;57.61;98423.34;1827336;78;21373;-72
2021/03/10 07:43:42;;;;;;;61.18;38.25;;;;;;;3.71;50.66;98424.95;1826586;78;21124;-72
2021/03/10 07:46:31;;;;;;;84.85;38.67;;;;;;;4.44;55.88;98426.11;1827561;78;21046;-72
2021/03/10 07:48:58;;;;;;;66.50;37.35;;;;;;;5.25;55.69;98416.45;1827582;78;21160;-71
2021/03/10 07:51:35;;;;;;;61.90;40.03;;;;;;;5.48;54.97;98426.35;1827524;78;21458;-71
2021/03/10 07:54:05;;;;;;;55.83;35.20;;;;;;;6.01;54.08;98419.91;1802301;78;21179;-72
2021/03/10 07:56:32;;;;;;;56.95;36.28;;;;;;;6.57;53.67;98420.06;1825487;78;21041;-72
2021/03/10 07:59:10;;;;;;;81.28;39.95;;;;;;;6.14;47.13;98420.94;1827424;78;21042;-72
2021/03/10 08:01:36;;;;;;;70.20;38.20;;;;;;;6.90;48.21;98416.03;1827436;78;21073;-72
2021/03/10 08:04:12;;;;;;;61.92;32.95;;;;;;;8.06;48.37;98416.47;1827465;78;21013;-72
2021/03/10 08:06:52;;;;;;;70.95;41.42;;;;;;;7.83;48.07;98409.46;1825967;78;21190;-73
2021/03/10 08:09:20;;;;;;;62.17;35.78;;;;;;;8.26;47.90;98407.22;1827472;78;21084;-72
2021/03/10 08:12:05;;;;;;;133.82;55.70;;;;;;;8.76;45.07;98408.24;1827431;78;21112;-72
2021/03/10 08:14:41;;;;;;;94.32;51.70;;;;;;;8.65;43.00;98412.48;1827446;78;21021;-72
2021/03/10 08:17:07;;;;;;;67.12;41.48;;;;;;;8.31;44.78;98411.88;1827468;78;21128;-72
2021/03/10 08:19:34;;;;;;;52.27;35.10;;;;;;;9.28;44.44;98410.76;1827398;78;21185;-72
2021/03/10 08:22:00;;;;;;;48.40;31.73;;;;;;;10.22;42.81;98417.09;1827429;78;21021;-72
2021/03/10 08:24:26;;;;;;;43.00;30.52;;;;;;;10.99;37.65;98420.98;1827430;78;21077;-72
2021/03/10 08:26:58;;;;;;;45.43;31.37;;;;;;;10.66;40.20;98422.87;1827472;78;21473;-72
2021/03/10 08:29:25;;;;;;;51.08;29.07;;;;;;;10.81;38.26;98412.05;1827480;78;21410;-73
2021/03/10 08:31:57;;;;;;;45.75;28.23;;;;;;;11.36;37.26;98408.97;1827481;78;21128;-73
2021/03/10 08:34:33;;;;;;;35.08;22.60;;;;;;;11.29;37.84;98415.26;1827477;78;21033;-73
2021/03/10 08:36:59;;;;;;;41.68;23.00;;;;;;;11.46;38.26;98416.30;1827396;78;21096;-73
2021/03/10 08:39:25;;;;;;;40.75;23.85;;;;;;;12.09;37.46;98409.83;1827394;78;21116;-73
2021/03/10 08:41:56;;;;;;;28.20;18.75;;;;;;;12.38;35.35;98412.63;1825834;78;21373;-73
2021/03/10 08:44:23;;;;;;;33.28;22.60;;;;;;;11.26;27.57;98405.74;1824199;78;21234;-73
2021/03/10 08:46:51;;;;;;;26.45;17.90;;;;;;;12.59;33.15;98410.61;1824259;78;21482;-72
2021/03/10 08:49:20;;;;;;;27.53;16.93;;;;;;;12.70;32.01;98412.95;1824462;78;21073;-72
2021/03/10 08:51:48;;;;;;;37.20;17.25;;;;;;;13.85;32.24;98402.88;1824193;78;21104;-72
2021/03/10 08:54:16;;;;;;;22.82;17.12;;;;;;;14.56;30.94;98403.27;1824546;78;21078;-72
2021/03/10 08:56:50;;;;;;;21.87;15.80;;;;;;;14.12;30.58;98408.51;1824273;78;21491;-73
2021/03/10 08:59:17;;;;;;;22.90;16.02;;;;;;;14.78;30.35;98406.17;1823524;78;21093;-72
2021/03/10 09:01:50;;;;;;;20.37;14.18;;;;;;;15.34;29.26;98403.86;1824185;78;21072;-72
2021/03/10 09:04:24;;;;;;;21.40;16.12;;;;;;;14.66;27.88;98408.56;1824202;78;21073;-72
2021/03/10 09:06:51;;;;;;;20.82;14.23;;;;;;;14.97;27.91;98409.45;1824221;78;21371;-72
2021/03/10 09:09:17;;;;;;;28.45;17.92;;;;;;;12.90;30.04;98407.92;1824278;78;22005;-72
2021/03/10 09:11:43;;;;;;;25.62;15.20;;;;;;;11.27;31.12;98403.30;1824106;78;21082;-71
2021/03/10 09:14:10;;;;;;;25.48;15.72;;;;;;;10.01;30.81;98403.52;1824225;78;21033;-71
2021/03/10 09:16:36;;;;;;;50.85;19.35;;;;;;;8.48;32.73;98403.97;1794376;78;21097;-71
2021/03/10 09:19:02;;;;;;;24.70;13.55;;;;;;;7.42;33.79;98405.44;1824217;78;21398;-71
2021/03/10 09:21:40;;;;;;;26.27;14.35;;;;;;;6.08;34.28;98412.51;1824274;78;21918;-71
2021/03/10 09:24:07;;;;;;;21.77;13.68;;;;;;;5.69;35.33;98407.94;1823556;78;21136;-72
2021/03/10 09:26:38;;;;;;;23.10;11.22;;;;;;;5.10;36.11;98406.17;1824209;78;21379;-72
2021/03/10 09:29:06;;;;;;;104.15;38.23;;;;;;;4.79;34.96;98407.36;1823888;78;37890;-71
2021/03/10 09:31:32;;;;;;;33.33;13.03;;;;;;;4.17;36.90;98413.59;1824181;78;21541;-71
2021/03/10 09:34:05;;;;;;;26.02;11.30;;;;;;;3.74;37.25;98414.30;1824198;78;21423;-71
2021/03/10 09:36:31;;;;;;;15.32;7.58;;;;;;;3.58;37.44;98406.34;1824053;78;21541;-71
2021/03/10 09:38:58;;;;;;;18.05;9.25;;;;;;;3.23;36.34;98402.95;1824175;78;21233;-71
2021/03/10 09:41:26;;;;;;;17.17;7.58;;;;;;;3.16;35.73;98406.73;1824618;78;21199;-71
2021/03/10 09:44:03;;;;;;;13.95;9.10;;;;;;;2.87;35.75;98400.25;1827520;78;21473;-71
2021/03/10 09:46:43;;;;;;;28.45;10.98;;;;;;;2.38;36.10;98400.03;1868693;76;27632;-71
2021/03/10 09:49:09;;;;;;;19.80;9.88;;;;;;;2.32;36.00;98405.46;1844770;77;21360;-72
2021/03/10 09:51:46;;;;;;;14.70;9.13;;;;;;;2.05;37.21;98412.81;1819528;78;21195;-72
2021/03/10 09:54:12;;;;;;;16.73;8.38;;;;;;;1.97;37.15;98410.73;1819479;77;21109;-72
2021/03/10 09:56:50;;;;;;;22.13;9.83;;;;;;;1.95;37.54;98415.97;1819586;78;21542;-72
2021/03/10 09:59:16;;;;;;;26.93;9.40;;;;;;;1.92;37.32;98412.39;1819465;77;21048;-72
2021/03/10 10:01:46;;;;;;;18.87;10.05;;;;;;;1.79;38.68;98409.27;1819544;78;20980;-71
2021/03/10 10:04:13;;;;;;;18.17;9.53;;;;;;;1.89;37.66;98408.83;1819468;77;21187;-72
2021/03/10 10:06:51;;;;;;;24.05;11.97;;;;;;;1.82;39.17;98423.55;1819460;78;21130;-72
2021/03/10 10:09:17;;;;;;;35.25;27.73;;;;;;;1.98;37.04;98419.56;1819026;77;21110;-72
2021/03/10 10:11:43;;;;;;;21.65;9.15;;;;;;;2.09;39.10;98414.04;1819600;78;21542;-72
2021/03/10 10:14:09;;;;;;;15.75;8.33;;;;;;;1.92;36.82;98421.75;1819509;77;21394;-73
2021/03/10 10:16:38;;;;;;;19.67;9.65;;;;;;;1.94;36.84;98419.16;1819592;78;22020;-72
2021/03/10 10:19:05;;;;;;;25.65;9.20;;;;;;;1.85;37.03;98417.77;1818932;77;21427;-73
2021/03/10 10:21:32;;;;;;;26.12;9.85;;;;;;;1.68;36.25;98409.95;1819466;78;21114;-73
2021/03/10 10:23:59;;;;;;;13.62;7.37;;;;;;;1.66;36.56;98413.36;1819474;77;21118;-72
2021/03/10 10:26:26;;;;;;;14.53;8.23;;;;;;;1.59;36.60;98404.03;1819463;78;21007;-73
2021/03/10 10:28:52;;;;;;;18.60;9.45;;;;;;;1.89;36.81;98400.29;1819569;77;21266;-72
2021/03/10 10:31:18;;;;;;;13.95;9.13;;;;;;;1.83;38.08;98401.14;1819501;78;21024;-73
2021/03/10 10:33:44;;;;;;;15.53;8.80;;;;;;;1.92;38.10;98399.84;1819487;77;21062;-73
2021/03/10 10:36:10;;;;;;;17.55;9.20;;;;;;;1.69;36.37;98407.58;1819539;78;21475;-73
2021/03/10 10:38:36;;;;;;;14.18;8.15;;;;;;;1.73;36.20;98405.31;1819450;77;21110;-72
2021/03/10 10:41:03;;;;;;;17.25;9.20;;;;;;;1.84;37.29;98405.96;1819547;78;21185;-72
2021/03/10 10:43:33;;;;;;;17.90;9.70;;;;;;;1.72;38.14;98413.03;1819406;78;21110;-73
2021/03/10 10:45:57;;;;;;;14.93;9.30;;;;;;;1.94;36.87;98416.48;1794334;78;21110;-72
2021/03/10 10:48:23;;;;;;;21.57;9.58;;;;;;;1.89;37.02;98413.66;1822736;78;21130;-72
2021/03/10 10:50:50;;;;;;;34.03;11.10;;;;;;;1.96;36.65;98410.39;1822614;77;21075;-72
2021/03/10 10:53:16;;;;;;;17.87;9.63;;;;;;;2.05;38.57;98408.32;1822628;78;21254;-72
2021/03/10 10:55:42;;;;;;;20.35;9.73;;;;;;;2.07;37.82;98412.92;1822598;77;21519;-72
2021/03/10 10:58:08;;;;;;;15.28;9.08;;;;;;;1.80;37.34;98408.78;1822030;78;21141;-72
2021/03/10 11:00:35;;;;;;;22.52;11.40;;;;;;;1.91;36.82;98399.55;1822197;77;21408;-73
2021/03/10 11:03:01;;;;;;;20.25;11.08;;;;;;;2.00;38.95;98412.14;1822099;78;21103;-73
2021/03/10 11:05:27;;;;;;;38.48;15.03;;;;;;;1.89;37.61;98396.80;1822061;77;21149;-72
2021/03/10 11:07:54;;;;;;;23.05;12.05;;;;;;;2.00;38.64;98401.97;1821992;78;21134;-73
2021/03/10 11:10:20;;;;;;;138.70;21.62;;;;;;;2.08;38.53;98393.69;1822054;77;21106;-72
2021/03/10 11:12:46;;;;;;;49.70;12.37;;;;;;;2.08;38.21;98392.36;1822002;78;21141;-73
2021/03/10 11:15:13;;;;;;;18.20;7.45;;;;;;;2.16;39.14;98387.56;1822021;77;21476;-73
2021/03/10 11:17:39;;;;;;;17.15;10.28;;;;;;;2.38;38.39;98388.00;1822112;78;21197;-72
2021/03/10 11:20:07;;;;;;;41.13;19.57;;;;;;;2.18;39.09;98388.69;1821992;77;21055;-73
2021/03/10 11:22:34;;;;;;;16.73;9.38;;;;;;;2.26;39.00;98393.25;1822174;78;21090;-73
2021/03/10 11:25:01;;;;;;;21.02;10.00;;;;;;;2.29;38.46;98394.66;1821949;77;21159;-73
2021/03/10 11:27:27;;;;;;;22.80;10.15;;;;;;;2.51;38.20;98391.10;1822114;78;21066;-72